Time;durP1;ratioP1;P1;durP2;ratioP2;P2;SDS_P1;SDS_P2;PMS_P1;PMS_P2;Temp;Humidity;BMP_temperature;BMP_pressure;BME280_temperature;BME280_humidity;BME280_pressure;Samples;Min_cycle;Max_cycle;Signal;HPM_P1;HPM_P2
2024/04/22 00:00:24;;;;;;;6.78;2.67;;;;;;;-141.50;100.00;63355.56;5373982;26;20014;-78
2024/04/22 00:02:51;;;;;;;6.53;2.78;;;;;;;-141.50;100.00;63355.56;5366294;26;20008;-81
2024/04/22 00:05:20;;;;;;;7.30;2.78;;;;;;;-141.50;100.00;63355.56;5357433;26;20018;-82
2024/04/22 00:07:50;;;;;;;5.60;2.83;;;;;;;-141.50;100.00;63355.56;5371178;26;20008;-83
2024/04/22 00:10:18;;;;;;;7.07;3.03;;;;;;;-141.50;100.00;63355.56;5332330;26;20005;-82
2024/04/22 00:12:45;;;;;;;7.40;3.42;;;;;;;-141.50;100.00;63355.56;5326475;26;20269;-82
2024/04/22 00:15:12;;;;;;;5.40;2.60;;;;;;;-141.50;100.00;63355.56;5376231;26;20036;-81
2024/04/22 00:17:39;;;;;;;7.63;3.05;;;;;;;-141.50;100.00;63355.56;5369021;26;20062;-81
2024/04/22 00:20:07;;;;;;;7.00;2.72;;;;;;;-141.50;100.00;63355.56;5377848;26;19996;-81
2024/04/22 00:22:35;;;;;;;5.22;2.60;;;;;;;-141.50;100.00;63355.56;5395775;26;20000;-81
2024/04/22 00:25:02;;;;;;;6.22;2.78;;;;;;;-141.50;100.00;63355.56;5371436;26;20040;-79
2024/04/22 00:27:30;;;;;;;6.22;2.83;;;;;;;-141.50;100.00;63355.56;5373671;26;20065;-78
2024/04/22 00:30:00;;;;;;;6.30;2.72;;;;;;;-141.50;100.00;63355.56;5382892;26;20008;-80
2024/04/22 00:32:27;;;;;;;8.13;3.08;;;;;;;-141.50;100.00;63355.56;5378367;26;20016;-80
2024/04/22 00:34:55;;;;;;;6.55;3.22;;;;;;;-141.50;100.00;63355.56;5373455;26;20005;-81
2024/04/22 00:37:23;;;;;;;6.45;2.97;;;;;;;-141.50;100.00;63355.56;5376709;26;20008;-81
2024/04/22 00:39:53;;;;;;;6.53;3.22;;;;;;;-141.50;100.00;63355.56;5366926;26;20335;-80
2024/04/22 00:42:20;;;;;;;6.05;2.83;;;;;;;-141.50;100.00;63355.56;5353879;26;20009;-81
2024/04/22 00:44:51;;;;;;;6.05;2.97;;;;;;;-141.50;100.00;63355.56;5322419;26;20009;-81
2024/04/22 00:47:21;;;;;;;6.50;3.05;;;;;;;-141.50;100.00;63355.56;5326593;26;20020;-81
2024/04/22 00:49:51;;;;;;;6.28;2.97;;;;;;;-141.50;100.00;63355.56;5339384;26;20409;-80
2024/04/22 00:52:19;;;;;;;5.70;3.20;;;;;;;-141.50;100.00;63355.56;5359623;26;20045;-79
2024/04/22 00:54:47;;;;;;;6.85;2.78;;;;;;;-141.50;100.00;63355.56;5320926;26;20709;-79
2024/04/22 00:57:16;;;;;;;6.85;3.28;;;;;;;-141.50;100.00;63355.56;5333976;26;21466;-80
2024/04/22 00:59:43;;;;;;;8.38;3.65;;;;;;;-141.50;100.00;63355.56;5336875;26;20020;-79
2024/04/22 01:02:11;;;;;;;6.35;2.88;;;;;;;-141.50;100.00;63355.56;5368941;26;20062;-80
2024/04/22 01:04:40;;;;;;;5.05;2.95;;;;;;;-141.50;100.00;63355.56;5355491;26;20016;-80
2024/04/22 01:07:10;;;;;;;7.57;3.28;;;;;;;-141.50;100.00;63355.56;5360194;26;20479;-80
2024/04/22 01:09:38;;;;;;;8.15;3.13;;;;;;;-141.50;100.00;63355.56;5360648;26;20022;-80
2024/04/22 01:12:05;;;;;;;7.40;3.53;;;;;;;-141.50;100.00;63355.56;5363378;26;20087;-79
2024/04/22 01:14:32;;;;;;;7.68;2.95;;;;;;;-141.50;100.00;63355.56;5359196;26;20005;-79
2024/04/22 01:17:01;;;;;;;8.77;3.40;;;;;;;-141.50;100.00;63355.56;5371353;26;20047;-81
2024/04/22 01:19:28;;;;;;;6.65;2.90;;;;;;;-141.50;100.00;63355.56;5338566;26;20265;-82
2024/04/22 01:21:56;;;;;;;6.35;2.75;;;;;;;-141.50;100.00;63355.56;5357750;26;20001;-81
2024/04/22 01:24:23;;;;;;;6.07;2.90;;;;;;;-141.50;100.00;63355.56;5342666;26;20009;-80
2024/04/22 01:26:52;;;;;;;6.90;3.13;;;;;;;-141.50;100.00;63355.56;5331691;26;20001;-81
2024/04/22 01:29:20;;;;;;;6.20;2.75;;;;;;;-141.50;100.00;63355.56;5370648;26;20009;-80
2024/04/22 01:31:47;;;;;;;6.75;3.25;;;;;;;-141.50;100.00;63355.56;5364130;26;20004;-79
2024/04/22 01:34:14;;;;;;;6.95;3.13;;;;;;;-141.50;100.00;63355.56;5360139;26;19997;-82
2024/04/22 01:36:42;;;;;;;7.82;2.97;;;;;;;-141.50;100.00;63355.56;5406076;26;20019;-79
2024/04/22 01:39:09;;;;;;;7.63;2.88;;;;;;;-141.50;100.00;63355.56;5368334;26;20463;-81
2024/04/22 01:41:39;;;;;;;7.95;3.30;;;;;;;-141.50;100.00;63355.56;5369281;26;20012;-80
2024/04/22 01:44:08;;;;;;;4.88;2.80;;;;;;;-141.50;100.00;63355.56;5377029;26;20000;-81
2024/04/22 01:46:35;;;;;;;5.85;2.95;;;;;;;-141.50;100.00;63355.56;5364071;26;20011;-80
2024/04/22 01:49:03;;;;;;;6.47;2.80;;;;;;;-141.50;100.00;63355.56;5335098;26;20008;-81
2024/04/22 01:51:30;;;;;;;5.03;2.63;;;;;;;-141.50;100.00;63355.56;5380302;26;20020;-81
2024/04/22 01:53:57;;;;;;;6.15;3.25;;;;;;;-141.50;100.00;63355.56;5355875;26;20029;-80
2024/04/22 01:56:24;;;;;;;4.93;2.88;;;;;;;-141.50;100.00;63355.56;5362038;26;20504;-82
2024/04/22 01:58:52;;;;;;;5.43;2.88;;;;;;;-141.50;100.00;63355.56;5368998;26;20005;-82
2024/04/22 02:01:19;;;;;;;6.13;3.00;;;;;;;-141.50;100.00;63355.56;5353034;26;20040;-81
2024/04/22 02:03:46;;;;;;;7.72;3.35;;;;;;;-141.50;100.00;63355.56;5369100;26;20005;-80
2024/04/22 02:06:14;;;;;;;5.47;2.75;;;;;;;-141.50;100.00;63355.56;5351173;26;20008;-81
2024/04/22 02:08:41;;;;;;;5.45;3.30;;;;;;;-141.50;100.00;63355.56;5371550;26;20122;-80
2024/04/22 02:11:09;;;;;;;5.90;2.67;;;;;;;-141.50;100.00;63355.56;5334458;26;20048;-80
2024/04/22 02:13:37;;;;;;;5.18;2.63;;;;;;;-141.50;100.00;63355.56;5374827;26;20472;-80
2024/04/22 02:16:04;;;;;;;6.88;2.85;;;;;;;-141.50;100.00;63355.56;5338659;26;20012;-81
2024/04/22 02:18:34;;;;;;;7.05;3.00;;;;;;;-141.50;100.00;63355.56;5340827;26;20019;-80
2024/04/22 02:21:01;;;;;;;6.35;2.88;;;;;;;-141.50;100.00;63355.56;5361898;26;20001;-80
2024/04/22 02:23:28;;;;;;;7.15;3.03;;;;;;;-141.50;100.00;63355.56;5364882;26;20004;-80
2024/04/22 02:25:55;;;;;;;6.05;2.88;;;;;;;-141.50;100.00;63355.56;5363906;26;20079;-80
2024/04/22 02:28:23;;;;;;;8.75;2.88;;;;;;;-141.50;100.00;63355.56;5361453;26;20520;-79
2024/04/22 02:30:50;;;;;;;7.20;2.78;;;;;;;-141.50;100.00;63355.56;5378560;26;19996;-80
2024/04/22 02:33:21;;;;;;;5.43;2.72;;;;;;;-141.50;100.00;63355.56;5350974;26;20047;-80
2024/04/22 02:35:52;;;;;;;5.43;2.92;;;;;;;-141.50;100.00;63355.56;5367378;26;20003;-81
2024/04/22 02:38:19;;;;;;;7.05;3.05;;;;;;;-141.50;100.00;63355.56;5374999;26;20011;-82
2024/04/22 02:40:47;;;;;;;9.32;3.33;;;;;;;-141.50;100.00;63355.56;5373988;26;20073;-82
2024/04/22 02:43:17;;;;;;;9.07;3.22;;;;;;;-141.50;100.00;63355.56;5348388;26;28087;-82
2024/04/22 02:45:45;;;;;;;6.70;3.22;;;;;;;-141.50;100.00;63355.56;5375664;26;20004;-82
2024/04/22 02:48:15;;;;;;;7.07;2.72;;;;;;;-141.50;100.00;63355.56;5369611;26;20586;-81
2024/04/22 02:50:42;;;;;;;9.32;4.13;;;;;;;-141.50;100.00;63355.56;5385634;26;20457;-80
2024/04/22 02:53:09;;;;;;;4.93;2.70;;;;;;;-141.50;100.00;63355.56;5363478;26;20000;-79
2024/04/22 02:55:36;;;;;;;5.28;3.10;;;;;;;-141.50;100.00;63355.56;5341182;26;20004;-81
2024/04/22 02:58:04;;;;;;;5.65;3.00;;;;;;;-141.50;100.00;63355.56;5360697;26;20011;-80
2024/04/22 03:00:31;;;;;;;7.00;3.40;;;;;;;-141.50;100.00;63355.56;5375101;26;20027;-81
2024/04/22 03:02:59;;;;;;;8.07;3.35;;;;;;;-141.50;100.00;63355.56;5370230;26;20000;-79
2024/04/22 03:05:26;;;;;;;6.07;3.00;;;;;;;-141.50;100.00;63355.56;5333440;26;20453;-81
2024/04/22 03:07:54;;;;;;;8.18;3.72;;;;;;;-141.50;100.00;63355.56;5339480;26;20015;-81
2024/04/22 03:10:21;;;;;;;5.90;3.00;;;;;;;-141.50;100.00;63355.56;5371127;26;20040;-80
2024/04/22 03:12:48;;;;;;;7.45;3.13;;;;;;;-141.50;100.00;63355.56;5397556;26;20004;-80
2024/04/22 03:15:15;;;;;;;5.90;2.90;;;;;;;-141.50;100.00;63355.56;5362627;26;20033;-80
2024/04/22 03:17:42;;;;;;;6.00;2.88;;;;;;;-141.50;100.00;63355.56;5320797;26;20012;-81
2024/04/22 03:20:13;;;;;;;6.45;2.92;;;;;;;-141.50;100.00;63355.56;5378113;26;20004;-80
2024/04/22 03:22:40;;;;;;;6.25;2.97;;;;;;;-141.50;100.00;63355.56;5348207;26;20086;-81
2024/04/22 03:25:07;;;;;;;6.68;2.97;;;;;;;-141.50;100.00;63355.56;5334654;26;20032;-82
2024/04/22 03:27:34;;;;;;;7.57;3.47;;;;;;;-141.50;100.00;63355.56;5337795;26;20013;-83
2024/04/22 03:30:06;;;;;;;7.07;2.90;;;;;;;-141.50;100.00;63355.56;5355647;26;20016;-80
2024/04/22 03:32:43;;;;;;;8.52;3.80;;;;;;;-141.50;100.00;63355.56;5305865;26;20005;-82
2024/04/22 03:35:10;;;;;;;8.43;3.75;;;;;;;-141.50;100.00;63355.56;5330302;26;20408;-80
2024/04/22 03:37:44;;;;;;;10.32;4.60;;;;;;;-141.50;100.00;63355.56;5305336;26;20012;-81
2024/04/22 03:40:11;;;;;;;7.78;4.03;;;;;;;-141.50;100.00;63355.56;5335663;26;20473;-81
2024/04/22 03:42:39;;;;;;;10.35;3.85;;;;;;;-141.50;100.00;63355.56;5324333;26;20028;-79
2024/04/22 03:45:06;;;;;;;10.45;4.80;;;;;;;-141.50;100.00;63355.56;5323879;26;20006;-81
2024/04/22 03:50:24;;;;;;;8.82;4.53;;;;;;;-141.50;100.00;63355.56;5354361;26;20036;-80
2024/04/22 03:52:52;;;;;;;8.15;3.90;;;;;;;-141.50;100.00;63355.56;5349985;26;20000;-79
2024/04/22 03:55:33;;;;;;;10.05;4.00;;;;;;;-141.50;100.00;63355.56;5371770;26;20298;-81
2024/04/22 03:58:00;;;;;;;9.90;4.03;;;;;;;-141.50;100.00;63355.56;5368789;26;20055;-81
2024/04/22 04:00:27;;;;;;;6.82;3.65;;;;;;;-141.50;100.00;63355.56;5370352;26;20008;-80
2024/04/22 04:02:54;;;;;;;8.57;4.00;;;;;;;-141.50;100.00;63355.56;5375471;26;19996;-80
2024/04/22 04:05:21;;;;;;;7.68;3.55;;;;;;;-141.50;100.00;63355.56;5365658;26;20008;-79
2024/04/22 04:07:50;;;;;;;9.23;3.70;;;;;;;-141.50;100.00;63355.56;5372580;26;20496;-79
2024/04/22 04:10:18;;;;;;;7.75;4.20;;;;;;;-141.50;100.00;63355.56;5329802;26;20055;-80
2024/04/22 04:12:45;;;;;;;9.02;4.20;;;;;;;-141.50;100.00;63355.56;5360016;26;20007;-80
2024/04/22 04:15:18;;;;;;;7.60;3.83;;;;;;;-141.50;100.00;63355.56;5356185;26;20015;-78
2024/04/22 04:17:48;;;;;;;10.20;4.47;;;;;;;-141.50;100.00;63355.56;5385371;26;20435;-79
2024/04/22 04:20:18;;;;;;;9.05;4.32;;;;;;;-141.50;100.00;63355.56;5394916;26;20349;-79
2024/04/22 04:22:46;;;;;;;10.60;4.57;;;;;;;-141.50;100.00;63355.56;5391906;26;20394;-81
2024/04/22 04:25:21;;;;;;;10.93;4.72;;;;;;;-141.50;100.00;63355.56;5331248;26;20438;-79
2024/04/22 04:27:48;;;;;;;9.80;4.47;;;;;;;-141.50;100.00;63355.56;5367925;26;20008;-80
2024/04/22 04:30:16;;;;;;;9.13;3.40;;;;;;;-141.50;100.00;63355.56;5357025;26;20395;-80
2024/04/22 04:32:43;;;;;;;5.88;2.78;;;;;;;-141.50;100.00;63355.56;5362764;26;20011;-78
2024/04/22 04:35:10;;;;;;;9.73;2.50;;;;;;;-141.50;100.00;63355.56;5370601;26;20008;-79
2024/04/22 04:37:37;;;;;;;7.00;3.13;;;;;;;-141.50;100.00;63355.56;5357139;26;20004;-79
2024/04/22 04:40:10;;;;;;;6.93;2.83;;;;;;;-141.50;100.00;63355.56;5369745;26;20005;-81
2024/04/22 04:42:45;;;;;;;5.88;2.50;;;;;;;-141.50;100.00;63355.56;5350468;26;20015;-80
2024/04/22 04:45:12;;;;;;;6.90;2.67;;;;;;;-141.50;100.00;63355.56;5347243;26;20016;-80
2024/04/22 04:47:39;;;;;;;6.55;2.38;;;;;;;-141.50;100.00;63355.56;5364427;26;20023;-79
2024/04/22 04:50:06;;;;;;;4.93;2.58;;;;;;;-141.50;100.00;63355.56;5364164;26;20000;-81
2024/04/22 04:52:33;;;;;;;3.40;2.33;;;;;;;-141.50;100.00;63355.56;5362914;26;20016;-79
2024/04/22 04:55:00;;;;;;;5.85;2.90;;;;;;;-141.50;100.00;63355.56;5371238;26;20330;-78
2024/04/22 04:57:27;;;;;;;5.45;2.67;;;;;;;-141.50;100.00;63355.56;5341794;26;20295;-78
2024/04/22 04:59:54;;;;;;;8.35;3.58;;;;;;;-141.50;100.00;63355.56;5371793;26;20004;-80
2024/04/22 05:02:22;;;;;;;10.60;3.88;;;;;;;-141.50;100.00;63355.56;5367588;26;20469;-80
2024/04/22 05:04:50;;;;;;;8.60;4.25;;;;;;;-141.50;100.00;63355.56;5358507;26;20012;-81
2024/04/22 05:07:18;;;;;;;8.75;4.20;;;;;;;-141.50;100.00;63355.56;5341045;26;20020;-81
2024/04/22 05:09:45;;;;;;;9.32;4.70;;;;;;;-141.50;100.00;63355.56;5346712;26;20487;-81
2024/04/22 05:12:12;;;;;;;9.10;4.38;;;;;;;-141.50;100.00;63355.56;5343056;26;20000;-81
2024/04/22 05:14:39;;;;;;;8.30;4.15;;;;;;;-141.50;100.00;63355.56;5377880;26;20004;-81
2024/04/22 05:17:06;;;;;;;6.97;3.40;;;;;;;-141.50;100.00;63355.56;5373736;26;20013;-80
2024/04/22 05:19:33;;;;;;;5.95;2.63;;;;;;;-141.50;100.00;63355.56;5368052;26;20337;-79
2024/04/22 05:22:00;;;;;;;4.75;2.33;;;;;;;-141.50;100.00;63355.56;5369069;26;20036;-80
2024/04/22 05:24:27;;;;;;;11.98;2.92;;;;;;;-141.50;100.00;63355.56;5333760;26;20005;-81
2024/04/22 05:26:57;;;;;;;6.32;2.42;;;;;;;-141.50;100.00;63355.56;5338333;26;20073;-79
2024/04/22 05:29:24;;;;;;;5.35;2.15;;;;;;;-141.50;100.00;63355.56;5366210;26;20047;-80
2024/04/22 05:31:51;;;;;;;4.10;2.03;;;;;;;-141.50;100.00;63355.56;5365253;26;20440;-79
2024/04/22 05:37:04;;;;;;;4.95;1.80;;;;;;;-141.50;100.00;63355.56;5360831;26;20269;-79
2024/04/22 05:39:31;;;;;;;6.18;2.35;;;;;;;-141.50;100.00;63355.56;5353823;26;20344;-80
2024/04/22 05:41:59;;;;;;;5.18;2.30;;;;;;;-141.50;100.00;63355.56;5352729;26;20036;-80
2024/04/22 05:44:26;;;;;;;4.82;2.30;;;;;;;-141.50;100.00;63355.56;5362209;26;20023;-81
2024/04/22 05:46:53;;;;;;;3.45;1.80;;;;;;;-141.50;100.00;63355.56;5356584;26;20046;-80
2024/04/22 05:49:21;;;;;;;8.63;1.98;;;;;;;-141.50;100.00;63355.56;5369138;26;20012;-81
2024/04/22 05:51:49;;;;;;;3.47;2.05;;;;;;;-141.50;100.00;63355.56;5317045;26;20374;-81
2024/04/22 05:54:16;;;;;;;4.40;2.40;;;;;;;-141.50;100.00;63355.56;5354882;26;20036;-81
2024/04/22 05:56:44;;;;;;;4.75;2.53;;;;;;;-141.50;100.00;63355.56;5358884;26;20091;-80
2024/04/22 05:59:12;;;;;;;5.38;2.40;;;;;;;-141.50;100.00;63355.56;5372074;26;20012;-79
2024/04/22 06:01:41;;;;;;;6.40;2.03;;;;;;;-141.50;100.00;63355.56;5363276;26;20022;-79
2024/04/22 06:04:09;;;;;;;4.15;2.10;;;;;;;-141.50;100.00;63355.56;5350821;26;20349;-80
2024/04/22 06:06:37;;;;;;;8.27;2.50;;;;;;;-141.50;100.00;63355.56;5334294;26;20082;-80
2024/04/22 06:09:24;;;;;;;4.85;2.40;;;;;;;-141.50;100.00;63355.56;5372301;26;20023;-80
2024/04/22 06:11:51;;;;;;;5.68;2.40;;;;;;;-141.50;100.00;63355.56;5363206;26;20023;-80
2024/04/22 06:14:36;;;;;;;9.25;2.78;;;;;;;-141.50;100.00;63355.56;5360865;26;20019;-80
2024/04/22 06:17:03;;;;;;;6.85;2.50;;;;;;;-141.50;100.00;63355.56;5367050;26;20009;-80
2024/04/22 06:19:31;;;;;;;6.47;2.10;;;;;;;-141.50;100.00;63355.56;5351771;26;20019;-79
2024/04/22 06:21:58;;;;;;;6.10;2.40;;;;;;;-141.50;100.00;63355.56;5361980;26;20023;-80
2024/04/22 06:24:25;;;;;;;5.45;2.60;;;;;;;-141.50;100.00;63355.56;5350345;26;20505;-82
2024/04/22 06:26:52;;;;;;;9.07;2.20;;;;;;;-141.50;100.00;63355.56;5369626;26;20451;-79
2024/04/22 06:29:19;;;;;;;4.53;2.22;;;;;;;-141.50;100.00;63355.56;5371929;26;20352;-81
2024/04/22 06:31:46;;;;;;;6.47;2.53;;;;;;;-141.50;100.00;63355.56;5365862;26;20004;-81
2024/04/22 06:34:17;;;;;;;5.20;2.22;;;;;;;-141.50;100.00;63355.56;5369607;26;20049;-80
2024/04/22 06:36:44;;;;;;;5.22;2.40;;;;;;;-141.50;100.00;63355.56;5365066;26;20009;-79
2024/04/22 06:39:14;;;;;;;8.63;2.72;;;;;;;-141.50;100.00;63355.56;5362595;26;20001;-79
2024/04/22 06:41:42;;;;;;;6.28;2.60;;;;;;;-141.50;100.00;63355.56;5358907;26;20000;-80
2024/04/22 06:44:10;;;;;;;7.10;2.63;;;;;;;-141.50;100.00;63355.56;5367477;26;20003;-80
2024/04/22 06:46:38;;;;;;;8.65;3.20;;;;;;;-141.50;100.00;63355.56;5353893;26;20004;-80
2024/04/22 06:49:05;;;;;;;7.13;3.55;;;;;;;-141.50;100.00;63355.56;5360614;26;20005;-78
2024/04/22 06:51:32;;;;;;;9.07;3.53;;;;;;;-141.50;100.00;63355.56;5374807;26;20009;-80
2024/04/22 06:53:59;;;;;;;8.20;3.20;;;;;;;-141.50;100.00;63355.56;5332235;26;20083;-79
2024/04/22 06:56:26;;;;;;;11.05;3.60;;;;;;;-141.50;100.00;63355.56;5372656;26;20056;-80
2024/04/22 06:58:54;;;;;;;8.85;3.13;;;;;;;-141.50;100.00;63355.56;5349926;26;20004;-79
2024/04/22 07:01:21;;;;;;;7.10;3.35;;;;;;;-141.50;100.00;63355.56;5360977;26;20422;-81
2024/04/22 07:04:04;;;;;;;8.80;3.95;;;;;;;-141.50;100.00;63355.56;5358947;26;20004;-80
2024/04/22 07:06:31;;;;;;;9.85;3.65;;;;;;;-141.50;100.00;63355.56;5371863;26;20303;-80
2024/04/22 07:08:58;;;;;;;8.75;4.38;;;;;;;-141.50;100.00;63355.56;5364942;26;20005;-80
2024/04/22 07:11:26;;;;;;;7.95;3.80;;;;;;;-141.50;100.00;63355.56;5376638;26;20435;-78
2024/04/22 07:13:53;;;;;;;15.50;6.13;;;;;;;-141.50;100.00;63355.56;5372096;26;20004;-79
2024/04/22 07:16:20;;;;;;;14.70;5.82;;;;;;;-141.50;100.00;63355.56;5366877;26;20351;-80
2024/04/22 07:18:47;;;;;;;9.52;4.72;;;;;;;-141.50;100.00;63355.56;5373149;26;20085;-80
2024/04/22 07:21:19;;;;;;;10.02;4.07;;;;;;;-141.50;100.00;63355.56;5366186;26;20012;-80
2024/04/22 07:23:46;;;;;;;8.70;4.25;;;;;;;-141.50;100.00;63355.56;5370512;26;20449;-81
2024/04/22 07:26:13;;;;;;;11.88;4.80;;;;;;;-141.50;100.00;63355.56;5360311;26;20028;-79
2024/04/22 07:28:41;;;;;;;10.43;4.40;;;;;;;-141.50;100.00;63355.56;5374694;26;20063;-81
2024/04/22 07:31:09;;;;;;;10.60;3.97;;;;;;;-141.50;100.00;63355.56;5372378;26;20008;-81
2024/04/22 07:33:36;;;;;;;14.10;4.55;;;;;;;-141.50;100.00;63355.56;5350951;26;20007;-78
2024/04/22 07:36:29;;;;;;;14.02;4.40;;;;;;;-141.50;100.00;63355.56;5356519;26;20569;-79
2024/04/22 07:39:00;;;;;;;11.68;3.92;;;;;;;-141.50;100.00;63355.56;5367065;26;20012;-80
2024/04/22 07:41:28;;;;;;;9.45;4.68;;;;;;;-141.50;100.00;63355.56;5348694;26;20011;-80
2024/04/22 07:43:56;;;;;;;10.75;4.40;;;;;;;-141.50;100.00;63355.56;5375246;26;20004;-80
2024/04/22 07:46:24;;;;;;;15.50;5.00;;;;;;;-141.50;100.00;63355.56;5399714;26;20004;-80
2024/04/22 07:48:51;;;;;;;9.90;3.90;;;;;;;-141.50;100.00;63355.56;5361947;26;20460;-78
2024/04/22 07:51:18;;;;;;;7.75;3.13;;;;;;;-141.50;100.00;63355.56;5363026;26;20011;-78
2024/04/22 07:53:46;;;;;;;11.45;4.63;;;;;;;-141.50;100.00;63355.56;5329483;26;20330;-80
2024/04/22 07:56:18;;;;;;;10.23;3.65;;;;;;;-141.50;100.00;63355.56;5335851;26;20044;-78
2024/04/22 07:58:45;;;;;;;9.52;4.05;;;;;;;-141.50;100.00;63355.56;5364492;26;20054;-79
2024/04/22 08:01:13;;;;;;;28.27;9.65;;;;;;;-141.50;100.00;63355.56;5372104;26;20351;-80
2024/04/22 08:03:41;;;;;;;9.98;4.18;;;;;;;-141.50;100.00;63355.56;5356400;26;20008;-80
2024/04/22 08:06:13;;;;;;;12.40;4.15;;;;;;;-141.50;100.00;63355.56;5359809;26;20004;-80
2024/04/22 08:08:41;;;;;;;9.77;3.60;;;;;;;-141.50;100.00;63355.56;5364690;26;20004;-79
2024/04/22 08:11:08;;;;;;;7.93;3.85;;;;;;;-141.50;100.00;63355.56;5365426;26;20051;-81
2024/04/22 08:13:36;;;;;;;8.32;3.70;;;;;;;-141.50;100.00;63355.56;5370495;26;20000;-80
2024/04/22 08:16:03;;;;;;;9.90;4.03;;;;;;;-141.50;100.00;63355.56;5371794;26;20012;-79
2024/04/22 08:18:33;;;;;;;8.93;3.83;;;;;;;-141.50;100.00;63355.56;5371963;26;20000;-81
2024/04/22 08:21:02;;;;;;;9.75;3.97;;;;;;;-141.50;100.00;63355.56;5375048;26;20004;-82
2024/04/22 08:23:30;;;;;;;8.73;3.72;;;;;;;-141.50;100.00;63355.56;5364531;26;20015;-81
2024/04/22 08:25:58;;;;;;;5.90;3.45;;;;;;;-141.50;100.00;63355.56;5369273;26;20459;-81
2024/04/22 08:28:25;;;;;;;8.95;3.17;;;;;;;-141.50;100.00;63355.56;5368586;26;20146;-81
2024/04/22 08:31:03;;;;;;;7.25;3.53;;;;;;;-141.50;100.00;63355.56;5358136;26;20000;-82
2024/04/22 08:33:30;;;;;;;7.55;3.72;;;;;;;-141.50;100.00;63355.56;5357840;26;20014;-82
2024/04/22 08:35:57;;;;;;;9.70;3.40;;;;;;;-141.50;100.00;63355.56;5353949;26;20000;-81
2024/04/22 08:38:24;;;;;;;7.85;3.63;;;;;;;-141.50;100.00;63355.56;5329431;26;20009;-81
2024/04/22 08:40:52;;;;;;;6.25;3.30;;;;;;;-141.50;100.00;63355.56;5365081;26;20011;-80
2024/04/22 08:43:20;;;;;;;6.68;2.90;;;;;;;-141.50;100.00;63355.56;5361422;26;20016;-80
2024/04/22 08:45:50;;;;;;;8.52;3.63;;;;;;;-141.50;100.00;63355.56;5364841;26;20495;-81
2024/04/22 08:48:18;;;;;;;7.55;3.40;;;;;;;-141.50;100.00;63355.56;5374214;26;20731;-81
2024/04/22 08:50:49;;;;;;;8.50;3.47;;;;;;;-141.50;100.00;63355.56;5359177;26;20000;-81
2024/04/22 08:53:16;;;;;;;8.25;3.10;;;;;;;-141.50;100.00;63355.56;5367425;26;20508;-79
2024/04/22 08:55:44;;;;;;;6.13;3.08;;;;;;;-141.50;100.00;63355.56;5401462;26;20375;-81
2024/04/22 08:58:11;;;;;;;6.88;3.28;;;;;;;-141.50;100.00;63355.56;5373292;26;20016;-81
2024/04/22 09:00:39;;;;;;;8.05;4.10;;;;;;;-141.50;100.00;63355.56;5390035;26;20012;-79
2024/04/22 09:03:07;;;;;;;7.53;3.65;;;;;;;-141.50;100.00;63355.56;5378278;26;20011;-80
2024/04/22 09:05:35;;;;;;;5.47;3.17;;;;;;;-141.50;100.00;63355.56;5367593;26;20004;-79
2024/04/22 09:08:05;;;;;;;9.10;3.30;;;;;;;-141.50;100.00;63355.56;5377812;26;20004;-78
2024/04/22 09:10:33;;;;;;;6.35;3.58;;;;;;;-141.50;100.00;63355.56;5366743;26;20000;-80
2024/04/22 09:13:20;;;;;;;5.68;3.40;;;;;;;-141.50;100.00;63355.56;5379599;26;20027;-80
2024/04/22 09:15:55;;;;;;;7.25;3.28;;;;;;;-141.50;100.00;63355.56;5367277;26;20000;-80
2024/04/22 09:18:26;;;;;;;9.30;4.00;;;;;;;-141.50;100.00;63355.56;5357072;26;20023;-79
2024/04/22 09:21:10;;;;;;;7.68;3.38;;;;;;;-141.50;100.00;63355.56;5375124;26;20000;-81
2024/04/22 09:23:37;;;;;;;7.50;3.70;;;;;;;-141.50;100.00;63355.56;5378641;26;20082;-82
2024/04/22 09:26:05;;;;;;;7.25;3.60;;;;;;;-141.50;100.00;63355.56;5366793;26;20412;-79
2024/04/22 09:28:35;;;;;;;7.95;3.70;;;;;;;-141.50;100.00;63355.56;5365413;26;20004;-80
2024/04/22 09:31:04;;;;;;;9.15;4.00;;;;;;;-141.50;100.00;63355.56;5362719;26;20037;-80
2024/04/22 09:33:35;;;;;;;6.82;3.65;;;;;;;-141.50;100.00;63355.56;5373264;26;20005;-80
2024/04/22 09:36:05;;;;;;;7.50;3.53;;;;;;;-141.50;100.00;63355.56;5368219;26;20000;-79
2024/04/22 09:38:32;;;;;;;7.35;4.05;;;;;;;-141.50;100.00;63355.56;5368456;26;20009;-80
2024/04/22 09:41:13;;;;;;;5.78;3.45;;;;;;;-141.50;100.00;63355.56;5362992;26;20013;-79
2024/04/22 09:43:42;;;;;;;7.30;3.85;;;;;;;-141.50;100.00;63355.56;5338139;26;20063;-80
2024/04/22 09:46:18;;;;;;;9.07;4.10;;;;;;;-141.50;100.00;63355.56;5375408;26;20020;-79
2024/04/22 09:48:47;;;;;;;7.70;3.83;;;;;;;-141.50;100.00;63355.56;5357444;26;20000;-78
2024/04/22 09:51:15;;;;;;;7.05;3.40;;;;;;;-141.50;100.00;63355.56;5329741;26;20064;-81
2024/04/22 09:53:42;;;;;;;5.70;3.33;;;;;;;-141.50;100.00;63355.56;5360678;26;20055;-81
2024/04/22 09:56:14;;;;;;;9.23;3.60;;;;;;;-141.50;100.00;63355.56;5371900;26;20408;-81
2024/04/22 09:58:42;;;;;;;11.15;3.70;;;;;;;-141.50;100.00;63355.56;5351012;26;20074;-81
2024/04/22 10:01:10;;;;;;;8.52;3.88;;;;;;;-141.50;100.00;63355.56;5364046;26;20339;-81
2024/04/22 10:03:37;;;;;;;7.22;3.45;;;;;;;-141.50;100.00;63355.56;5368749;26;20350;-81
2024/04/22 10:06:06;;;;;;;5.28;2.72;;;;;;;-141.50;100.00;63355.56;5361594;26;20739;-79
2024/04/22 10:08:33;;;;;;;5.18;2.90;;;;;;;-141.50;100.00;63355.56;5366421;26;20000;-80
2024/04/22 10:11:07;;;;;;;5.05;2.35;;;;;;;-141.50;100.00;63355.56;5377188;26;20004;-80
2024/04/22 10:13:36;;;;;;;6.20;2.30;;;;;;;-141.50;100.00;63355.56;5366922;26;20005;-81
2024/04/22 10:16:04;;;;;;;6.85;2.60;;;;;;;-141.50;100.00;63355.56;5359903;26;20017;-81
2024/04/22 10:18:33;;;;;;;4.72;2.10;;;;;;;-141.50;100.00;63355.56;5364757;26;20008;-80
2024/04/22 10:21:04;;;;;;;4.63;2.20;;;;;;;-141.50;100.00;63355.56;5338745;26;20377;-78
2024/04/22 10:23:34;;;;;;;5.97;2.08;;;;;;;-141.50;100.00;63355.56;5359951;26;20036;-81
2024/04/22 10:26:01;;;;;;;5.28;2.00;;;;;;;-141.50;100.00;63355.56;5365639;26;20016;-82
2024/04/22 10:28:28;;;;;;;4.95;2.00;;;;;;;-141.50;100.00;63355.56;5376258;26;20015;-81
2024/04/22 10:30:57;;;;;;;4.60;1.70;;;;;;;-141.50;100.00;63355.56;5369441;26;20001;-79
2024/04/22 10:33:24;;;;;;;2.78;1.80;;;;;;;-141.50;100.00;63355.56;5350273;26;20081;-81
2024/04/22 10:35:51;;;;;;;4.75;2.10;;;;;;;-141.50;100.00;63355.56;5376744;26;20063;-81
2024/04/22 10:38:19;;;;;;;8.70;1.83;;;;;;;-141.50;100.00;63355.56;5367313;26;20026;-79
2024/04/22 10:40:46;;;;;;;4.82;1.60;;;;;;;-141.50;100.00;63355.56;5359800;26;20012;-80
2024/04/22 10:43:13;;;;;;;3.80;1.98;;;;;;;-141.50;100.00;63355.56;5346606;26;20015;-81
2024/04/22 10:45:40;;;;;;;4.82;1.77;;;;;;;-141.50;100.00;63355.56;5383961;26;20364;-81
2024/04/22 10:48:07;;;;;;;6.25;2.00;;;;;;;-141.50;100.00;63355.56;5365658;26;20001;-80
2024/04/22 10:50:46;;;;;;;4.53;1.80;;;;;;;-141.50;100.00;63355.56;5323735;26;20001;-80
2024/04/22 10:53:13;;;;;;;3.97;1.60;;;;;;;-141.50;100.00;63355.56;5360281;26;20336;-81
2024/04/22 10:55:41;;;;;;;3.08;1.70;;;;;;;-141.50;100.00;63355.56;5353565;26;20005;-79
2024/04/22 10:58:09;;;;;;;3.22;1.73;;;;;;;-141.50;100.00;63355.56;5367744;26;20059;-81
2024/04/22 11:00:37;;;;;;;4.88;1.80;;;;;;;-141.50;100.00;63355.56;5363515;26;20445;-79
2024/04/22 11:03:05;;;;;;;4.97;1.60;;;;;;;-141.50;100.00;63355.56;5360791;26;20336;-80
2024/04/22 11:05:32;;;;;;;2.85;1.77;;;;;;;-141.50;100.00;63355.56;5356242;26;20465;-78
2024/04/22 11:08:01;;;;;;;5.72;1.55;;;;;;;-141.50;100.00;63355.56;5358524;26;20000;-80
2024/04/22 11:10:31;;;;;;;3.35;1.70;;;;;;;-141.50;100.00;63355.56;5367494;26;20004;-79
2024/04/22 11:13:10;;;;;;;4.55;1.70;;;;;;;-141.50;100.00;63355.56;5354118;26;20012;-78
2024/04/22 11:15:37;;;;;;;2.60;1.63;;;;;;;-141.50;100.00;63355.56;5341616;26;20005;-78
2024/04/22 11:18:06;;;;;;;3.92;1.73;;;;;;;-141.50;100.00;63355.56;5360969;26;20334;-82
2024/04/22 11:20:34;;;;;;;2.50;1.20;;;;;;;-141.50;100.00;63355.56;5391568;26;20027;-80